Time;durP1;ratioP1;P1;durP2;ratioP2;P2;SDS_P1;SDS_P2;PMS_P1;PMS_P2;Temp;Humidity;BMP_temperature;BMP_pressure;BME280_temperature;BME280_humidity;BME280_pressure;Samples;Min_cycle;Max_cycle;Signal;HPM_P1;HPM_P2
2021/08/31 00:00:53;;;;;;;8.50;5.03;;;;;;;27.52;29.68;99679.55;1613668;86;21229;-64
2021/08/31 00:03:20;;;;;;;7.83;4.53;;;;;;;27.62;29.62;99680.63;1613638;86;21023;-65
2021/08/31 00:05:48;;;;;;;8.23;4.80;;;;;;;27.62;29.81;99673.37;1616421;86;21110;-67
2021/08/31 00:08:15;;;;;;;5.53;4.23;;;;;;;27.67;29.61;99672.99;1613758;86;21573;-64
2021/08/31 00:10:44;;;;;;;7.13;4.73;;;;;;;27.57;29.73;99670.03;1615575;86;21766;-64
2021/08/31 00:13:11;;;;;;;8.07;4.87;;;;;;;27.69;29.38;99672.90;1614561;86;21162;-63
2021/08/31 00:15:38;;;;;;;6.03;3.80;;;;;;;27.75;29.17;99667.68;1611707;87;21497;-67
2021/08/31 00:18:06;;;;;;;9.60;4.83;;;;;;;27.72;29.28;99668.82;1612159;87;21556;-64
2021/08/31 00:20:33;;;;;;;9.23;5.03;;;;;;;27.32;29.77;99671.53;1612718;87;21051;-66
2021/08/31 00:23:00;;;;;;;9.03;5.33;;;;;;;27.66;29.44;99674.88;1611170;87;21647;-63
2021/08/31 00:25:27;;;;;;;12.33;4.90;;;;;;;27.63;29.49;99676.28;1611309;87;21197;-64
2021/08/31 00:27:54;;;;;;;8.27;4.40;;;;;;;27.71;29.17;99669.38;1613870;86;21389;-63
2021/08/31 00:30:21;;;;;;;9.87;5.03;;;;;;;27.68;29.46;99665.97;1615293;86;21113;-63
2021/08/31 00:32:47;;;;;;;8.97;4.60;;;;;;;27.61;29.56;99665.63;1616850;86;21110;-67
2021/08/31 00:35:14;;;;;;;7.43;4.40;;;;;;;27.56;29.59;99665.23;1611771;86;21148;-64
2021/08/31 00:37:41;;;;;;;25.67;5.37;;;;;;;27.43;30.00;99669.35;1615825;86;21191;-64
2021/08/31 00:40:09;;;;;;;8.90;5.23;;;;;;;27.38;29.87;99675.08;1614579;87;21719;-63
2021/08/31 00:42:36;;;;;;;7.27;4.20;;;;;;;27.41;29.93;99676.36;1617258;86;21122;-64
2021/08/31 00:45:04;;;;;;;10.73;4.43;;;;;;;27.34;29.89;99672.78;1614620;86;21129;-66
2021/08/31 00:47:32;;;;;;;9.03;4.30;;;;;;;27.31;29.98;99666.70;1615713;86;21038;-67
2021/08/31 00:49:59;;;;;;;8.30;4.97;;;;;;;27.38;29.92;99666.27;1615396;86;21175;-63
2021/08/31 00:52:27;;;;;;;8.13;4.37;;;;;;;27.39;29.91;99679.36;1613662;86;22261;-64
2021/08/31 00:54:54;;;;;;;8.53;5.00;;;;;;;27.47;29.84;99665.77;1613709;86;21079;-64
2021/08/31 00:57:21;;;;;;;9.23;4.80;;;;;;;27.50;29.65;99672.38;1612891;87;21208;-66
2021/08/31 00:59:48;;;;;;;49.93;45.17;;;;;;;27.45;29.73;99655.12;1616885;86;21577;-63
2021/08/31 01:02:15;;;;;;;10.27;6.57;;;;;;;27.18;30.02;99666.27;1615246;86;21179;-63
2021/08/31 01:04:42;;;;;;;7.10;4.80;;;;;;;27.28;29.99;99657.98;1612244;86;21004;-64
2021/08/31 01:07:09;;;;;;;8.80;4.70;;;;;;;27.29;30.00;99668.13;1604830;87;21530;-64
2021/08/31 01:09:36;;;;;;;8.37;4.63;;;;;;;27.32;29.84;99657.60;1597479;88;21633;-64
2021/08/31 01:12:04;;;;;;;10.07;5.10;;;;;;;27.31;29.93;99654.66;1606801;87;21727;-64
2021/08/31 01:14:31;;;;;;;8.70;4.90;;;;;;;27.37;29.89;99664.14;1606768;87;21742;-64
2021/08/31 01:16:58;;;;;;;10.40;5.13;;;;;;;27.49;29.73;99660.09;1586362;89;21033;-66
2021/08/31 01:19:32;;;;;;;9.60;4.77;;;;;;;27.45;29.88;99661.26;1606507;88;21103;-66
2021/08/31 01:22:04;;;;;;;10.60;4.93;;;;;;;27.39;29.99;99663.86;1630620;87;22231;-64
2021/08/31 01:24:31;;;;;;;8.60;4.97;;;;;;;27.22;30.29;99663.22;1586537;87;21511;-67
2021/08/31 01:27:00;;;;;;;9.07;4.83;;;;;;;27.39;30.33;99666.53;1583963;89;21049;-63
2021/08/31 01:29:29;;;;;;;12.67;5.03;;;;;;;27.36;30.52;99659.11;1605233;87;21606;-65
2021/08/31 01:31:56;;;;;;;10.00;4.60;;;;;;;27.31;30.61;99664.03;1606883;87;21123;-65
2021/08/31 01:34:23;;;;;;;10.67;4.87;;;;;;;27.17;30.83;99667.38;1607133;87;21117;-64
2021/08/31 01:36:50;;;;;;;9.47;5.07;;;;;;;27.23;30.85;99658.09;1606438;86;20989;-64
2021/08/31 01:39:17;;;;;;;8.83;4.93;;;;;;;27.04;31.16;99660.97;1605248;87;22539;-66
2021/08/31 01:41:44;;;;;;;8.47;5.00;;;;;;;27.02;31.18;99668.53;1606561;87;22111;-64
2021/08/31 01:44:11;;;;;;;11.30;4.60;;;;;;;26.97;31.42;99669.98;1606268;88;21040;-64
2021/08/31 01:46:39;;;;;;;8.57;5.07;;;;;;;27.14;31.38;99674.67;1608278;87;21537;-65
2021/08/31 01:49:06;;;;;;;8.17;4.27;;;;;;;26.90;31.77;99675.00;1606530;87;21143;-64
2021/08/31 01:51:33;;;;;;;8.53;5.10;;;;;;;26.89;31.78;99674.18;1596862;88;21138;-64
2021/08/31 01:53:59;;;;;;;9.90;4.93;;;;;;;26.41;32.15;99665.42;1606773;87;21647;-65
2021/08/31 01:56:26;;;;;;;9.03;4.50;;;;;;;26.23;32.46;99653.56;1605528;87;21045;-64
2021/08/31 01:58:53;;;;;;;9.93;4.33;;;;;;;26.58;32.07;99664.00;1602235;89;21040;-64
2021/08/31 02:01:20;;;;;;;8.30;4.90;;;;;;;26.60;32.09;99661.83;1605316;87;21507;-65
2021/08/31 02:03:49;;;;;;;12.10;4.90;;;;;;;26.83;31.88;99652.69;1604518;87;21456;-63
2021/08/31 02:06:16;;;;;;;9.47;4.77;;;;;;;26.75;32.15;99654.77;1608166;87;21035;-64
2021/08/31 02:08:43;;;;;;;9.77;4.70;;;;;;;26.79;32.03;99649.60;1610288;87;21016;-66
2021/08/31 02:11:10;;;;;;;10.50;4.70;;;;;;;26.56;32.40;99664.31;1608533;87;21114;-64
2021/08/31 02:13:37;;;;;;;11.83;5.40;;;;;;;26.55;32.41;99656.58;1611719;87;21689;-66
2021/08/31 02:16:04;;;;;;;9.90;5.33;;;;;;;26.44;32.85;99651.46;1607914;87;21187;-64
2021/08/31 02:18:31;;;;;;;11.20;5.43;;;;;;;26.39;33.07;99644.88;1608753;87;21047;-67
2021/08/31 02:20:59;;;;;;;9.27;5.10;;;;;;;26.69;32.88;99639.94;1608036;87;21178;-65
2021/08/31 02:23:26;;;;;;;12.07;5.20;;;;;;;26.70;32.86;99652.20;1607592;87;21051;-68
2021/08/31 02:25:54;;;;;;;7.87;4.87;;;;;;;26.63;33.06;99647.83;1612421;87;21491;-65
2021/08/31 02:28:21;;;;;;;11.63;5.80;;;;;;;26.60;33.01;99655.14;1613813;86;21232;-68
2021/08/31 02:30:49;;;;;;;11.00;5.33;;;;;;;26.69;32.92;99662.11;1609801;87;21008;-65
2021/08/31 02:33:16;;;;;;;9.93;5.07;;;;;;;26.61;33.14;99678.09;1608641;87;21521;-65
2021/08/31 02:35:43;;;;;;;10.00;5.30;;;;;;;26.73;33.13;99670.31;1608595;87;21158;-66
2021/08/31 02:38:10;;;;;;;11.57;5.50;;;;;;;26.56;33.46;99663.52;1608770;87;21689;-65
2021/08/31 02:40:37;;;;;;;11.77;5.57;;;;;;;26.51;33.75;99651.60;1610261;87;22567;-67
2021/08/31 02:43:04;;;;;;;12.07;5.90;;;;;;;26.41;34.09;99633.91;1607857;87;21054;-65
2021/08/31 02:45:33;;;;;;;15.57;6.17;;;;;;;26.57;33.89;99645.84;1608847;87;21086;-67
2021/08/31 02:48:01;;;;;;;11.23;5.37;;;;;;;26.16;34.56;99652.08;1600537;87;21619;-64
2021/08/31 02:50:28;;;;;;;14.37;6.03;;;;;;;26.43;34.42;99650.41;1608841;87;21082;-66
2021/08/31 02:52:56;;;;;;;13.53;6.17;;;;;;;26.07;35.09;99647.23;1610482;87;21181;-67
2021/08/31 02:55:24;;;;;;;14.47;6.50;;;;;;;26.22;34.94;99656.00;1608270;87;21516;-69
2021/08/31 02:57:51;;;;;;;14.50;5.83;;;;;;;26.33;34.88;99659.47;1611663;87;22450;-65
2021/08/31 03:00:19;;;;;;;15.80;6.73;;;;;;;26.32;34.84;99663.77;1618338;81;21047;-66
2021/08/31 03:02:46;;;;;;;15.07;5.27;;;;;;;26.25;34.97;99660.16;1677918;83;21019;-68
2021/08/31 03:05:13;;;;;;;13.83;5.50;;;;;;;26.33;34.95;99663.48;1682169;83;21159;-65
2021/08/31 03:07:40;;;;;;;9.73;5.53;;;;;;;26.20;35.14;99674.98;1679046;83;20865;-64
2021/08/31 03:10:09;;;;;;;13.00;5.53;;;;;;;26.32;35.08;99671.23;1662259;83;21119;-63
2021/08/31 03:12:37;;;;;;;20.73;6.40;;;;;;;26.16;35.50;99665.44;1663226;83;21028;-66
2021/08/31 03:15:06;;;;;;;11.07;5.23;;;;;;;26.18;35.81;99665.16;1667405;83;21010;-64
2021/08/31 03:17:33;;;;;;;17.67;6.10;;;;;;;26.22;35.73;99668.02;1662359;85;21184;-66
2021/08/31 03:20:00;;;;;;;12.50;5.33;;;;;;;26.11;36.04;99659.44;1663890;83;21094;-63
2021/08/31 03:22:27;;;;;;;15.43;5.77;;;;;;;26.11;36.35;99654.09;1664072;83;21062;-67
2021/08/31 03:24:55;;;;;;;13.13;5.23;;;;;;;25.96;36.77;99648.53;1676194;83;21074;-66
2021/08/31 03:27:23;;;;;;;14.50;5.47;;;;;;;26.08;36.87;99656.02;1679108;85;21569;-65
2021/08/31 03:29:51;;;;;;;16.67;5.73;;;;;;;26.32;36.82;99663.22;1666964;83;20913;-66
2021/08/31 03:32:18;;;;;;;13.03;5.33;;;;;;;26.37;36.90;99660.99;1667255;85;21003;-66
2021/08/31 03:34:45;;;;;;;12.80;5.60;;;;;;;26.36;37.06;99658.84;1664930;85;20956;-67
2021/08/31 03:37:12;;;;;;;16.23;5.13;;;;;;;26.49;37.14;99655.92;1665591;85;20991;-72
2021/08/31 03:39:39;;;;;;;15.33;5.27;;;;;;;26.42;37.54;99652.30;1665291;85;20976;-71
2021/08/31 03:42:07;;;;;;;13.50;5.90;;;;;;;26.76;37.21;99648.88;1667520;83;22029;-68
2021/08/31 03:44:34;;;;;;;12.37;5.93;;;;;;;26.99;37.09;99649.63;1664493;83;21264;-70
2021/08/31 03:47:00;;;;;;;12.30;6.10;;;;;;;27.28;36.83;99648.62;1662674;85;22216;-69
2021/08/31 03:49:28;;;;;;;13.80;5.87;;;;;;;27.52;36.58;99648.22;1663904;83;21643;-68
2021/08/31 03:51:55;;;;;;;15.00;6.60;;;;;;;28.14;35.82;99634.63;1661498;85;21584;-66
2021/08/31 03:54:22;;;;;;;12.27;5.90;;;;;;;28.43;35.68;99629.77;1666046;83;22661;-69
2021/08/31 03:56:50;;;;;;;11.20;5.10;;;;;;;28.63;35.32;99628.31;1662089;83;21608;-69
2021/08/31 03:59:17;;;;;;;19.20;6.60;;;;;;;28.83;35.03;99638.38;1663752;83;21580;-67
2021/08/31 04:01:44;;;;;;;17.33;5.90;;;;;;;29.34;34.62;99629.36;1661499;85;21011;-66
2021/08/31 04:04:11;;;;;;;13.57;6.33;;;;;;;29.57;34.27;99623.71;1661616;83;21103;-65
2021/08/31 04:06:39;;;;;;;19.57;6.17;;;;;;;29.84;33.88;99612.27;1660639;85;21203;-68
2021/08/31 04:09:06;;;;;;;18.53;7.20;;;;;;;29.95;33.75;99611.55;1661520;83;21866;-68
2021/08/31 04:11:33;;;;;;;13.70;6.17;;;;;;;29.89;34.02;99611.53;1678956;83;21029;-65
2021/08/31 04:14:01;;;;;;;13.53;6.33;;;;;;;29.75;34.20;99605.63;1675131;83;21127;-65
2021/08/31 04:16:30;;;;;;;14.40;6.80;;;;;;;29.86;33.96;99602.78;1681064;83;21112;-67
2021/08/31 04:18:56;;;;;;;12.67;6.27;;;;;;;29.90;34.33;99610.97;1678532;85;22423;-66
2021/08/31 04:21:24;;;;;;;16.53;6.37;;;;;;;29.94;34.30;99606.52;1680439;83;20961;-66
2021/08/31 04:23:52;;;;;;;15.33;6.70;;;;;;;30.22;34.15;99602.17;1678501;85;20951;-68
2021/08/31 04:26:19;;;;;;;14.20;6.07;;;;;;;30.56;33.73;99604.30;1682045;83;21011;-66
2021/08/31 04:28:46;;;;;;;14.60;6.87;;;;;;;30.92;33.07;99596.12;1681854;83;21171;-70
2021/08/31 04:31:12;;;;;;;17.93;7.50;;;;;;;31.31;32.92;99597.94;1682095;85;21061;-66
2021/08/31 04:33:39;;;;;;;19.10;7.30;;;;;;;31.44;32.68;99592.22;1680623;83;20956;-66
2021/08/31 04:36:07;;;;;;;14.83;7.67;;;;;;;32.01;31.93;99586.91;1672099;83;21064;-67
2021/08/31 04:38:35;;;;;;;11.63;6.57;;;;;;;32.00;31.79;99594.78;1681058;83;22468;-70
2021/08/31 04:41:02;;;;;;;19.53;7.73;;;;;;;32.17;31.50;99586.42;1679819;85;21635;-67
2021/08/31 04:43:29;;;;;;;18.10;6.85;;;;;;;32.20;31.44;99587.86;1681515;83;21223;-67
2021/08/31 04:45:57;;;;;;;15.32;7.62;;;;;;;32.38;31.10;99595.06;1682679;83;21028;-68
2021/08/31 04:48:24;;;;;;;14.28;6.97;;;;;;;32.64;31.11;99601.35;1681885;83;22115;-67
2021/08/31 04:50:50;;;;;;;16.32;7.55;;;;;;;32.65;31.34;99608.31;1677657;85;21063;-68
2021/08/31 04:53:17;;;;;;;13.53;6.42;;;;;;;32.92;31.15;99602.64;1674806;83;22478;-66
2021/08/31 04:55:43;;;;;;;18.17;7.90;;;;;;;33.07;31.08;99593.54;1679799;83;21150;-68
2021/08/31 04:58:10;;;;;;;17.05;7.37;;;;;;;33.00;31.48;99596.87;1667910;83;21074;-67
2021/08/31 05:00:37;;;;;;;20.55;8.30;;;;;;;33.14;31.29;99597.76;1674015;85;21114;-68
2021/08/31 05:03:04;;;;;;;12.25;7.65;;;;;;;33.13;31.47;99600.25;1675877;83;21102;-66
2021/08/31 05:05:32;;;;;;;18.90;8.40;;;;;;;33.23;31.37;99607.83;1680647;83;20967;-66
2021/08/31 05:07:59;;;;;;;16.40;7.87;;;;;;;33.27;31.62;99607.91;1674727;85;21813;-66
2021/08/31 05:10:27;;;;;;;13.78;6.95;;;;;;;33.29;31.32;99608.33;1691234;83;20908;-65
2021/08/31 05:12:54;;;;;;;19.32;6.75;;;;;;;33.27;31.71;99609.27;1679701;83;21004;-67
2021/08/31 05:15:20;;;;;;;17.65;6.97;;;;;;;33.36;31.92;99611.97;1673049;83;21104;-66
2021/08/31 05:17:47;;;;;;;16.70;7.17;;;;;;;33.24;32.75;99610.73;1685026;83;21091;-66
2021/08/31 05:20:14;;;;;;;13.38;6.70;;;;;;;33.37;32.66;99607.34;1679275;83;21154;-67
2021/08/31 05:22:41;;;;;;;17.95;7.83;;;;;;;33.35;32.78;99601.53;1674274;83;22409;-69
2021/08/31 05:25:08;;;;;;;13.85;6.83;;;;;;;33.49;32.77;99603.77;1677454;83;21116;-67
2021/08/31 05:27:34;;;;;;;16.77;7.28;;;;;;;33.88;32.17;99599.98;1681564;83;20971;-70
2021/08/31 05:30:01;;;;;;;19.07;7.87;;;;;;;34.61;31.64;99598.30;1685532;83;20952;-70
2021/08/31 05:32:28;;;;;;;16.67;7.67;;;;;;;35.05;31.03;99589.77;1679577;83;22011;-69
2021/08/31 05:34:54;;;;;;;17.35;8.18;;;;;;;34.94;30.55;99586.09;1666093;83;21537;-69
2021/08/31 05:37:21;;;;;;;13.93;6.83;;;;;;;34.76;30.95;99586.38;1666407;83;21581;-69
2021/08/31 05:39:47;;;;;;;16.25;7.25;;;;;;;34.80;31.34;99589.34;1670624;85;21118;-68
2021/08/31 05:42:14;;;;;;;16.77;7.87;;;;;;;34.53;31.75;99583.09;1680348;83;21067;-68
2021/08/31 05:44:41;;;;;;;15.43;6.95;;;;;;;34.47;31.97;99576.95;1686252;83;21413;-70
2021/08/31 05:47:08;;;;;;;13.43;8.53;;;;;;;34.48;31.99;99586.08;1660338;83;21031;-69
2021/08/31 05:49:35;;;;;;;20.05;9.88;;;;;;;34.59;32.50;99580.30;1661829;85;21080;-73
2021/08/31 05:52:04;;;;;;;24.23;9.25;;;;;;;34.96;32.33;99591.91;1656513;85;20991;-70
2021/08/31 05:54:31;;;;;;;21.33;8.43;;;;;;;34.96;32.33;99591.91;1659298;85;21134;-71
2021/08/31 05:57:00;;;;;;;19.35;7.97;;;;;;;35.38;31.56;99589.64;1661482;85;21607;-72
2021/08/31 05:59:26;;;;;;;17.48;8.00;;;;;;;35.52;32.20;99599.36;1678600;85;20976;-68
2021/08/31 06:01:53;;;;;;;14.80;7.47;;;;;;;35.54;32.72;99602.50;1678605;83;21029;-69
2021/08/31 06:04:22;;;;;;;13.05;7.20;;;;;;;35.58;32.79;99586.28;1679433;85;21087;-67
2021/08/31 06:06:49;;;;;;;18.40;7.97;;;;;;;35.68;32.58;99595.69;1679059;83;21102;-69
2021/08/31 06:09:15;;;;;;;21.87;15.10;;;;;;;35.67;32.65;99595.48;1680166;83;21114;-68
2021/08/31 06:11:44;;;;;;;21.50;11.50;;;;;;;35.56;33.06;99579.85;1680511;83;20913;-66
2021/08/31 06:14:11;;;;;;;17.50;9.68;;;;;;;35.71;32.86;99577.33;1676913;83;21043;-68
2021/08/31 06:16:38;;;;;;;21.42;9.60;;;;;;;35.57;32.79;99586.86;1678619;83;21405;-70
2021/08/31 06:19:05;;;;;;;18.70;8.43;;;;;;;35.38;33.81;99588.28;1680957;85;21537;-69
2021/08/31 06:21:32;;;;;;;17.50;7.67;;;;;;;35.78;33.34;99588.27;1680247;83;21090;-70
2021/08/31 06:23:59;;;;;;;14.13;8.65;;;;;;;35.86;33.14;99574.98;1685580;83;20960;-68
2021/08/31 06:26:26;;;;;;;17.10;7.92;;;;;;;36.03;32.80;99579.88;1680493;83;20909;-70
2021/08/31 06:28:52;;;;;;;17.45;7.87;;;;;;;36.06;32.79;99594.61;1678338;83;21120;-68
2021/08/31 06:31:18;;;;;;;17.75;8.40;;;;;;;36.28;32.45;99587.48;1679212;85;21034;-69
2021/08/31 06:33:46;;;;;;;18.92;9.18;;;;;;;36.16;32.63;99587.75;1681693;83;22139;-69
2021/08/31 06:36:14;;;;;;;23.77;10.53;;;;;;;36.15;33.12;99575.34;1683681;83;21490;-70
2021/08/31 06:38:41;;;;;;;20.90;8.93;;;;;;;36.15;33.34;99567.20;1680862;85;21098;-69
2021/08/31 06:41:08;;;;;;;18.62;8.20;;;;;;;36.32;32.75;99566.58;1678945;83;21100;-69
2021/08/31 06:43:37;;;;;;;20.12;8.63;;;;;;;35.97;33.09;99569.11;1670590;85;20971;-69
2021/08/31 06:46:03;;;;;;;16.65;8.60;;;;;;;35.45;34.03;99571.34;1678776;83;21819;-69
2021/08/31 06:48:30;;;;;;;23.47;8.60;;;;;;;35.27;34.48;99567.03;1678885;85;20933;-69
2021/08/31 06:50:57;;;;;;;18.98;8.48;;;;;;;34.87;34.97;99571.08;1678791;83;21079;-68
2021/08/31 06:53:25;;;;;;;18.73;8.50;;;;;;;34.77;35.75;99570.33;1672408;85;21076;-70
2021/08/31 06:55:52;;;;;;;18.73;8.78;;;;;;;34.73;36.07;99578.97;1677174;85;21067;-67
2021/08/31 06:58:18;;;;;;;18.92;7.95;;;;;;;34.54;36.43;99585.22;1678417;83;21125;-68
2021/08/31 07:00:44;;;;;;;19.50;9.13;;;;;;;34.33;37.03;99570.73;1678988;85;21130;-67
2021/08/31 07:03:11;;;;;;;16.30;8.05;;;;;;;34.08;37.72;99560.80;1678927;83;21052;-70
2021/08/31 07:05:37;;;;;;;19.50;8.93;;;;;;;34.23;37.99;99559.92;1679472;83;21263;-67
2021/08/31 07:08:06;;;;;;;18.15;8.15;;;;;;;34.26;38.33;99565.19;1681195;83;21269;-67
2021/08/31 07:10:32;;;;;;;17.62;8.08;;;;;;;34.40;38.39;99576.27;1676690;83;21321;-65
2021/08/31 07:12:59;;;;;;;17.02;8.45;;;;;;;34.46;37.79;99574.03;1685595;83;20999;-68
2021/08/31 07:15:26;;;;;;;20.75;8.75;;;;;;;34.24;37.99;99566.11;1680735;83;21009;-69
2021/08/31 07:17:52;;;;;;;14.60;8.23;;;;;;;34.19;38.44;99569.11;1682521;83;21130;-69
2021/08/31 07:20:18;;;;;;;22.58;8.50;;;;;;;34.35;39.00;99569.79;1684241;83;22503;-69
2021/08/31 07:22:46;;;;;;;18.65;7.97;;;;;;;34.37;39.40;99556.12;1667457;83;21169;-69
2021/08/31 07:25:13;;;;;;;18.15;8.30;;;;;;;34.37;39.40;99556.12;1673907;83;21022;-69
2021/08/31 07:27:39;;;;;;;17.62;9.15;;;;;;;34.28;39.53;99550.14;1680855;83;21050;-68
2021/08/31 07:30:08;;;;;;;20.68;10.13;;;;;;;34.19;40.06;99543.42;1681147;83;21759;-68
2021/08/31 07:32:34;;;;;;;18.95;11.00;;;;;;;34.14;39.81;99539.09;1687152;83;21083;-70
2021/08/31 07:35:00;;;;;;;24.60;10.55;;;;;;;34.13;40.64;99530.20;1676337;83;21130;-67
2021/08/31 07:37:27;;;;;;;24.37;9.85;;;;;;;34.19;40.67;99527.97;1678131;83;20952;-69
2021/08/31 07:39:54;;;;;;;18.30;9.25;;;;;;;34.20;40.83;99540.91;1679564;84;20976;-69
2021/08/31 07:42:20;;;;;;;18.48;9.38;;;;;;;34.37;40.93;99553.41;1678935;85;21641;-69
2021/08/31 07:44:46;;;;;;;23.55;9.13;;;;;;;34.61;40.79;99568.53;1677490;83;21865;-69
2021/08/31 07:47:14;;;;;;;20.00;8.95;;;;;;;34.98;39.61;99582.86;1678974;83;21161;-69
2021/08/31 07:49:42;;;;;;;21.15;9.45;;;;;;;34.98;39.61;99582.86;1656912;85;21002;-69
2021/08/31 07:52:08;;;;;;;21.10;8.88;;;;;;;34.96;40.06;99579.72;1668544;83;21347;-69
2021/08/31 07:54:35;;;;;;;16.90;8.93;;;;;;;35.20;39.76;99575.09;1658533;85;21094;-68
2021/08/31 07:57:02;;;;;;;20.65;8.68;;;;;;;35.13;39.90;99584.46;1671372;83;21082;-70
2021/08/31 07:59:30;;;;;;;19.73;8.35;;;;;;;35.23;39.38;99594.66;1679264;83;22063;-69
2021/08/31 08:01:57;;;;;;;18.07;7.75;;;;;;;35.09;39.46;99609.56;1662623;85;21086;-68
2021/08/31 08:04:23;;;;;;;23.20;10.85;;;;;;;35.15;39.80;99617.38;1651095;85;21154;-69
2021/08/31 08:06:50;;;;;;;24.45;12.25;;;;;;;34.90;40.66;99619.10;1653287;85;21588;-69
2021/08/31 08:09:17;;;;;;;24.40;13.15;;;;;;;34.99;40.35;99613.42;1655832;85;20999;-70
2021/08/31 08:11:45;;;;;;;26.07;13.20;;;;;;;34.89;40.78;99606.69;1656678;85;20957;-69
2021/08/31 08:14:13;;;;;;;22.42;9.90;;;;;;;34.85;41.30;99602.59;1657748;83;21619;-69
2021/08/31 08:16:39;;;;;;;19.90;10.48;;;;;;;34.86;41.13;99604.15;1664406;85;21086;-68
2021/08/31 08:19:06;;;;;;;22.42;9.10;;;;;;;34.61;41.30;99606.42;1654787;85;21110;-69
2021/08/31 08:21:33;;;;;;;19.20;9.18;;;;;;;34.61;41.17;99613.20;1669870;85;21075;-70
2021/08/31 08:24:00;;;;;;;20.50;9.28;;;;;;;34.35;41.53;99609.02;1666970;85;21690;-68
2021/08/31 08:26:27;;;;;;;14.70;8.10;;;;;;;34.17;42.21;99603.84;1679698;83;20940;-68
2021/08/31 08:28:54;;;;;;;18.60;8.90;;;;;;;33.86;43.00;99602.25;1672572;84;20996;-68
2021/08/31 08:31:21;;;;;;;24.77;9.30;;;;;;;33.69;44.15;99607.31;1658536;85;21011;-67
2021/08/31 08:33:47;;;;;;;20.72;9.00;;;;;;;33.53;45.13;99595.98;1671702;84;21344;-67
2021/08/31 08:36:15;;;;;;;13.55;8.90;;;;;;;33.42;46.35;99579.50;1670911;85;22172;-67
2021/08/31 08:38:42;;;;;;;24.72;10.53;;;;;;;33.40;47.33;99571.53;1662431;85;21045;-68
2021/08/31 08:41:08;;;;;;;17.05;8.88;;;;;;;33.37;48.16;99554.09;1668283;84;21561;-67
2021/08/31 08:43:35;;;;;;;22.00;11.20;;;;;;;33.51;47.86;99556.36;1665111;85;21120;-66
2021/08/31 08:46:04;;;;;;;41.20;23.38;;;;;;;33.69;48.79;99566.77;1668539;85;20980;-69
2021/08/31 08:48:30;;;;;;;33.25;15.10;;;;;;;33.69;48.80;99541.87;1671832;84;21960;-68
2021/08/31 08:51:00;;;;;;;35.13;17.87;;;;;;;33.56;49.62;99526.34;1668268;85;20992;-70
2021/08/31 08:53:27;;;;;;;60.73;34.33;;;;;;;33.49;50.26;99552.44;1670666;85;20985;-70
2021/08/31 08:55:56;;;;;;;53.58;22.90;;;;;;;33.43;52.99;99565.42;1672516;85;21783;-73
2021/08/31 08:58:23;;;;;;;37.67;15.70;;;;;;;33.47;59.98;99582.52;1668256;85;21114;-76
2021/08/31 09:01:02;;;;;;;40.87;16.37;;;;;;;33.20;72.24;99578.81;1667931;85;21164;-69
2021/08/31 09:03:31;;;;;;;26.00;15.05;;;;;;;32.89;86.61;99559.36;1677325;84;21081;-69
2021/08/31 09:06:13;;;;;;;34.77;23.20;;;;;;;32.29;95.19;99550.52;1730088;82;21437;-67
2021/08/31 09:09:00;;;;;;;39.45;22.42;;;;;;;31.83;100.00;99580.45;1725213;82;21109;-66
2021/08/31 09:11:38;;;;;;;25.63;16.33;;;;;;;31.25;100.00;99573.10;1673168;84;21857;-66
2021/08/31 09:14:20;;;;;;;32.43;17.47;;;;;;;30.59;100.00;99571.37;1668503;84;21243;-64
2021/08/31 09:16:55;;;;;;;23.60;14.70;;;;;;;30.09;100.00;99587.09;1727659;82;38260;-65
2021/08/31 09:19:34;;;;;;;28.37;15.17;;;;;;;29.77;100.00;99607.41;1729546;81;21085;-64
2021/08/31 09:22:20;;;;;;;26.37;14.07;;;;;;;29.44;100.00;99605.39;1675787;84;21115;-66
2021/08/31 09:25:08;;;;;;;23.13;13.17;;;;;;;29.06;100.00;99602.19;1727891;82;21121;-66
2021/08/31 09:27:41;;;;;;;24.97;13.50;;;;;;;28.99;100.00;99585.80;1727444;82;21160;-65
2021/08/31 09:30:29;;;;;;;22.07;13.27;;;;;;;29.13;100.00;99598.98;1672778;85;20958;-73
2021/08/31 09:33:08;;;;;;;22.03;12.17;;;;;;;29.44;100.00;99595.22;1680886;85;21009;-69
2021/08/31 09:35:42;;;;;;;18.55;11.70;;;;;;;29.81;100.00;99587.65;1679781;84;22499;-73
2021/08/31 09:38:10;;;;;;;24.20;12.43;;;;;;;30.33;100.00;99579.70;1731677;82;22070;-68
2021/08/31 09:40:44;;;;;;;22.13;12.43;;;;;;;30.95;100.00;99581.43;1720718;82;21136;-70
2021/08/31 09:43:17;;;;;;;19.87;11.33;;;;;;;31.60;100.00;99575.35;1731219;82;21030;-74
2021/08/31 09:45:46;;;;;;;17.23;11.23;;;;;;;32.19;100.00;99574.70;1731633;82;20906;-70
2021/08/31 09:48:14;;;;;;;18.62;11.30;;;;;;;32.67;100.00;99576.38;1731747;82;20990;-72
2021/08/31 09:50:46;;;;;;;15.35;10.85;;;;;;;32.98;100.00;99574.05;1726476;82;21014;-70
2021/08/31 09:53:26;;;;;;;17.80;10.35;;;;;;;32.88;100.00;99571.27;1715020;82;21203;-73
2021/08/31 09:56:11;;;;;;;19.77;11.78;;;;;;;32.94;100.00;99563.16;1715937;82;21443;-72
2021/08/31 09:58:42;;;;;;;21.50;11.50;;;;;;;33.29;100.00;99573.21;1732514;81;20964;-71
2021/08/31 10:01:09;;;;;;;18.65;11.53;;;;;;;33.35;100.00;99565.06;1734767;81;21658;-71
2021/08/31 10:03:38;;;;;;;17.65;11.90;;;;;;;33.33;100.00;99558.64;1712631;82;21521;-71
2021/08/31 10:06:06;;;;;;;17.25;11.95;;;;;;;33.30;100.00;99562.07;1705300;82;21121;-71
2021/08/31 10:08:36;;;;;;;19.67;12.45;;;;;;;33.21;100.00;99557.41;1704776;83;20987;-73
2021/08/31 10:11:03;;;;;;;22.50;12.95;;;;;;;33.16;100.00;99557.70;1706416;83;22093;-71
2021/08/31 10:13:36;;;;;;;24.90;14.18;;;;;;;32.92;100.00;99549.19;1706925;83;20971;-72
2021/08/31 10:16:03;;;;;;;20.25;12.68;;;;;;;33.07;100.00;99546.28;1674738;85;21051;-72
2021/08/31 10:18:30;;;;;;;19.90;13.45;;;;;;;33.30;100.00;99539.66;1702749;83;21128;-73
2021/08/31 10:21:05;;;;;;;22.80;13.93;;;;;;;33.84;100.00;99540.23;1704592;82;21035;-72
2021/08/31 10:23:34;;;;;;;20.12;12.85;;;;;;;34.46;100.00;99545.63;1702719;82;20967;-72
2021/08/31 10:26:29;;;;;;;22.50;12.90;;;;;;;34.81;100.00;99535.96;1691799;83;21043;-72
2021/08/31 10:29:23;;;;;;;19.90;11.45;;;;;;;35.28;91.75;99538.81;1696246;83;21105;-73
2021/08/31 10:31:53;;;;;;;20.27;10.75;;;;;;;35.28;91.75;99538.81;1692341;83;21123;-73
2021/08/31 10:34:39;;;;;;;17.45;10.82;;;;;;;35.76;79.85;99537.13;1698626;83;21054;-74
2021/08/31 10:37:07;;;;;;;17.70;10.48;;;;;;;36.04;77.64;99540.73;1705759;83;21003;-72
2021/08/31 10:39:54;;;;;;;16.65;10.20;;;;;;;36.39;72.16;99534.08;1701841;83;20956;-73
2021/08/31 10:42:35;;;;;;;15.40;10.48;;;;;;;36.52;66.29;99543.55;1703839;83;21031;-73
2021/08/31 10:45:27;;;;;;;22.07;11.28;;;;;;;36.42;59.91;99541.48;1699302;83;21370;-73
2021/08/31 10:47:53;;;;;;;14.83;9.38;;;;;;;36.60;63.93;99540.89;1711512;82;21007;-74
2021/08/31 10:50:23;;;;;;;20.15;10.90;;;;;;;36.78;59.64;99530.91;1706930;83;20936;-74
2021/08/31 10:53:02;;;;;;;18.12;11.38;;;;;;;37.17;54.61;99537.22;1701460;83;21255;-74
2021/08/31 10:55:34;;;;;;;19.17;10.30;;;;;;;36.96;53.35;99534.56;1705025;83;21047;-74
2021/08/31 10:58:04;;;;;;;15.93;10.38;;;;;;;37.15;52.31;99530.02;1680257;85;21188;-75
2021/08/31 11:00:43;;;;;;;20.10;9.75;;;;;;;37.03;52.82;99526.27;1706693;83;20971;-74
2021/08/31 11:03:10;;;;;;;17.30;10.32;;;;;;;37.03;54.32;99528.98;1706597;82;21087;-80
2021/08/31 11:05:38;;;;;;;17.15;10.60;;;;;;;37.19;53.75;99532.17;1713225;81;21038;-77
2021/08/31 11:08:11;;;;;;;17.35;11.43;;;;;;;37.47;50.24;99525.55;1718259;81;21086;-76
2021/08/31 11:10:44;;;;;;;22.67;12.53;;;;;;;37.22;49.91;99522.68;1720348;81;21126;-74
2021/08/31 11:13:22;;;;;;;18.50;11.60;;;;;;;36.93;52.55;99523.06;1721949;81;21559;-72
2021/08/31 11:15:49;;;;;;;17.45;11.12;;;;;;;36.87;52.31;99524.59;1717331;83;21089;-75
2021/08/31 11:18:19;;;;;;;16.65;11.40;;;;;;;36.76;53.40;99533.25;1717993;83;21626;-75
2021/08/31 11:20:46;;;;;;;19.15;12.80;;;;;;;36.81;51.47;99527.45;1716367;81;21157;-77
2021/08/31 11:23:17;;;;;;;17.27;13.25;;;;;;;36.96;50.73;99531.84;1717987;81;21823;-75
2021/08/31 11:25:49;;;;;;;23.70;14.25;;;;;;;37.22;49.00;99531.41;1718177;82;21049;-75
2021/08/31 11:28:24;;;;;;;20.10;13.45;;;;;;;36.95;49.16;99530.30;1720738;82;20986;-78
2021/08/31 11:31:12;;;;;;;19.60;13.98;;;;;;;36.75;49.47;99529.75;1720305;81;20954;-74